82°F Temp
55°F Dewpoint
40% Humidity
Temperature
13 MPH
21 KM/H
11 KTS
340°
North North
West

Wind Speed
Partly Cloudy
Conditions
Pressure 1008.13 (hPa) - 29.77 (in)
Visibility 10.0 (mi) - 16.1 (km)

Current Conditions
KSJC
Location 9(mi)
Metar :KSJC 230153Z 34011KT 10SM FEW004 28/13 A2977 RMK AO2 SLP081 FU FEW004 T02780133
Sat 22nd June 17:53 pm

Airport
  Metar Aviation API Data Provided by https://www.checkwx.com/ PHP scripts by weather34.com ©2024